European Seaway — MPDG3 — position and weather

sailwx.info

Track history (hours):
 
Tides and Currents Weather Stations Pressure Air Temp Water Temp Dewpoint Dewpoint Depression Visibility Wind Speed Wind Dir Waves Ship Positions

European Seaway

Operator: P & O Ferries

Last reported at 2018-Sep-24 21:03 UTC. Time now 2018-Sep-24 21:07 UTC.
Position N 50°58' E 001°52'.

Length 180 m; draft 5.5 m.

Type: Passenger vessel. MMSI: 232001040.

Date/timePositionNaut miles runAvg speedWind from/ knotsBaromVisibWave heightAir tempDewpointWater temp
2018-Sep-24 21:03N 50°58' E 001°52'0 0.0
2018-Sep-24 21:00N 50°58' E 001°52'0 0.0
2018-Sep-24 20:30N 50°58' E 001°52'0 0.0
2018-Sep-24 20:03N 50°58' E 001°52'0 0.0
2018-Sep-24 20:00N 50°58' E 001°52'0 0.0
2018-Sep-24 19:30N 50°58' E 001°52'0 0.7
2018-Sep-24 19:03N 50°58' E 001°52'0 0.8
2018-Sep-24 19:00N 50°58' E 001°52'0 0.0
2018-Sep-24 18:30N 50°58' E 001°52'3 6.8
2018-Sep-24 18:04N 50°58' E 001°47'114.6
2018-Sep-24 18:01N 50°58' E 001°46'917.4
2018-Sep-24 17:31N 51°01' E 001°33'919.4
2018-Sep-24 17:03N 51°07' E 001°22'117.6
2018-Sep-24 17:00N 51°07' E 001°21'1 1.1
2018-Sep-24 16:29N 51°07' E 001°20'0 0.0
2018-Sep-24 16:02N 51°07' E 001°20'0 0.6
2018-Sep-24 16:00N 51°07' E 001°20'612.5
2018-Sep-24 15:30N 51°06' E 001°30'919.5
2018-Sep-24 15:03N 51°00' E 001°40'119.6
2018-Sep-24 15:00N 50°60' E 001°42'612.1
2018-Sep-24 14:30N 50°58' E 001°51'0 0.0
2018-Sep-24 14:00N 50°58' E 001°51'0 0.0
2018-Sep-24 13:30N 50°58' E 001°51'4 9.7
2018-Sep-24 13:03N 50°58' E 001°44'120.6
2018-Sep-24 13:00N 50°58' E 001°42'919.1
2018-Sep-24 12:31N 51°03' E 001°30'810.2
2018-Sep-24 11:46N 51°07' E 001°20'0 0.0
2018-Sep-24 11:05N 51°07' E 001°20'0 0.0
2018-Sep-24 11:03N 51°07' E 001°20'0 0.0
2018-Sep-24 10:59N 51°07' E 001°20'1 2.1
2018-Sep-24 10:31N 51°07' E 001°22'817.6
2018-Sep-24 10:03N 51°03' E 001°33'119.4
2018-Sep-24 10:01N 51°03' E 001°34'918.6
2018-Sep-24 09:31N 50°58' E 001°47'3 6.0
2018-Sep-24 09:03N 50°58' E 001°51'0 0.0
2018-Sep-24 08:57N 50°58' E 001°51'0 0.0
2018-Sep-24 08:29N 50°58' E 001°51'0 0.0
2018-Sep-24 08:03N 50°58' E 001°51'0 0.0
2018-Sep-24 08:00N 50°58' E 001°51'0 0.0
2018-Sep-24 07:29N 50°58' E 001°51'0 0.0
2018-Sep-24 07:03N 50°58' E 001°51'0 0.0
2018-Sep-24 07:00N 50°58' E 001°51'0 0.0
2018-Sep-24 06:29N 50°58' E 001°51'0 0.0
2018-Sep-24 06:03N 50°58' E 001°51'0 0.0
2018-Sep-24 06:00N 50°58' E 001°51'0 0.0
2018-Sep-24 05:30N 50°58' E 001°51'0 0.0
2018-Sep-24 05:03N 50°58' E 001°51'0 0.0
2018-Sep-24 05:00N 50°58' E 001°51'0 0.0
2018-Sep-24 04:30N 50°58' E 001°51'0 0.0
2018-Sep-24 04:03N 50°58' E 001°51'0 0.0
2018-Sep-24 04:00N 50°58' E 001°51'0 0.0
2018-Sep-24 03:30N 50°58' E 001°51'0 0.0
2018-Sep-24 03:03N 50°58' E 001°51'0 0.0
2018-Sep-24 03:00N 50°58' E 001°51'0 0.0
2018-Sep-24 02:30N 50°58' E 001°51'0 0.0
2018-Sep-24 01:59N 50°58' E 001°51'0 0.0
2018-Sep-24 01:28N 50°58' E 001°51'0 0.0
2018-Sep-24 01:03N 50°58' E 001°51'0 0.0
2018-Sep-24 01:00N 50°58' E 001°51'0 0.0
2018-Sep-24 00:30N 50°58' E 001°51'0 0.0
2018-Sep-24 00:03N 50°58' E 001°51'0 0.0
2018-Sep-24 00:00N 50°58' E 001°51'0 0.0
2018-Sep-23 23:30N 50°58' E 001°51'0 0.0
2018-Sep-23 23:02N 50°58' E 001°51'0 0.0
2018-Sep-23 22:58N 50°58' E 001°51'0 0.0
2018-Sep-23 22:29N 50°58' E 001°51'0 0.0
2018-Sep-23 22:03N 50°58' E 001°51'0 0.0
2018-Sep-23 21:55N 50°58' E 001°51'0 0.0
2018-Sep-23 21:28N 50°58' E 001°51'0 0.0
2018-Sep-23 21:03N 50°58' E 001°51'0 0.0
2018-Sep-23 20:59N 50°58' E 001°51'0 0.0
2018-Sep-23 20:30N 50°58' E 001°51'0 0.0
2018-Sep-23 20:03N 50°58' E 001°51'0 0.0
2018-Sep-23 20:00N 50°58' E 001°51'0 0.0
2018-Sep-23 19:30N 50°58' E 001°51'0 0.0
2018-Sep-23 19:03N 50°58' E 001°51'0 0.0
2018-Sep-23 19:00N 50°58' E 001°51'2 3.2
2018-Sep-23 18:31N 50°58' E 001°48'613.8
2018-Sep-23 18:03N 50°58' E 001°39'117.9
2018-Sep-23 18:01N 50°59' E 001°37'816.9
2018-Sep-23 17:30N 51°04' E 001°27'610.1
2018-Sep-23 16:58N 51°07' E 001°20'0 0.0
2018-Sep-23 16:30N 51°07' E 001°20'2 5.3
2018-Sep-23 16:04N 51°07' E 001°24'116.2
2018-Sep-23 16:00N 51°07' E 001°25'918.7
2018-Sep-23 15:31N 51°02' E 001°38'817.7
2018-Sep-23 15:04N 50°58' E 001°49'116.3
2018-Sep-23 15:01N 50°58' E 001°50'1 0.5
2018-Sep-23 13:59N 50°58' E 001°51'0 0.0
2018-Sep-23 13:30N 50°58' E 001°51'0 0.0
2018-Sep-23 13:01N 50°58' E 001°51'0 0.0
2018-Sep-23 12:20N 50°58' E 001°51'0 0.0
2018-Sep-23 12:01N 50°58' E 001°51'0 0.0
2018-Sep-23 11:54N 50°58' E 001°51'0 0.0
2018-Sep-23 11:31N 50°58' E 001°51'0 0.0
2018-Sep-23 11:04N 50°58' E 001°51'0 0.0
2018-Sep-23 11:00N 50°58' E 001°51'0 0.0
2018-Sep-23 10:29N 50°58' E 001°51'0 0.0
2018-Sep-23 10:03N 50°58' E 001°51'0 0.0
2018-Sep-23 10:00N 50°58' E 001°51'0 0.0
2018-Sep-23 09:30N 50°58' E 001°51'0 0.0
2018-Sep-23 09:03N 50°58' E 001°51'0 0.0
2018-Sep-23 08:57N 50°58' E 001°51'0 0.0
2018-Sep-23 08:28N 50°58' E 001°51'0 0.0
2018-Sep-23 08:03N 50°58' E 001°51'0 0.0
2018-Sep-23 08:00N 50°58' E 001°51'0 0.0
2018-Sep-23 07:29N 50°58' E 001°51'0 0.0
2018-Sep-23 07:04N 50°58' E 001°51'0 0.0
2018-Sep-23 07:00N 50°58' E 001°51'0 0.0
2018-Sep-23 06:30N 50°58' E 001°51'0 0.0
2018-Sep-23 06:03N 50°58' E 001°51'0 0.0
2018-Sep-23 06:00N 50°58' E 001°51'0 0.0
2018-Sep-23 05:30N 50°58' E 001°51'0 0.0
2018-Sep-23 05:03N 50°58' E 001°51'0 0.0
2018-Sep-23 05:01N 50°58' E 001°51'0 0.0
2018-Sep-23 04:30N 50°58' E 001°51'0 0.0
2018-Sep-23 04:03N 50°58' E 001°51'0 0.0
2018-Sep-23 04:00N 50°58' E 001°51'0 0.0
2018-Sep-23 03:31N 50°58' E 001°51'0 0.0
2018-Sep-23 03:03N 50°58' E 001°51'0 0.0
2018-Sep-23 03:00N 50°58' E 001°51'0 0.0
2018-Sep-23 02:31N 50°58' E 001°51'0 0.0
2018-Sep-23 02:03N 50°58' E 001°51'0 0.0
2018-Sep-23 02:01N 50°58' E 001°51'0 0.0
2018-Sep-23 01:31N 50°58' E 001°51'0 0.0
2018-Sep-23 01:03N 50°58' E 001°51'0 0.0
2018-Sep-23 01:00N 50°58' E 001°51'0 0.0
2018-Sep-23 00:30N 50°58' E 001°51'0 0.0
2018-Sep-22 23:58N 50°58' E 001°51'0 0.0
2018-Sep-22 23:23N 50°58' E 001°51'0 0.0
2018-Sep-22 23:01N 50°58' E 001°51'0 0.0
2018-Sep-22 22:59N 50°58' E 001°51'0 0.0
2018-Sep-22 22:30N 50°58' E 001°51'0 0.0
2018-Sep-22 22:03N 50°58' E 001°51'0 0.0
2018-Sep-22 22:00N 50°58' E 001°51'0 0.0
2018-Sep-22 21:27N 50°58' E 001°51'0 0.0
2018-Sep-22 21:03N 50°58' E 001°51'0 0.0
2018-Sep-22 20:57N 50°58' E 001°51'0 0.0
2018-Sep-22 20:27N 50°58' E 001°51'0 0.0
2018-Sep-22 20:02N 50°58' E 001°51'0 0.0
2018-Sep-22 19:58N 50°58' E 001°51'0 0.0
2018-Sep-22 19:30N 50°58' E 001°51'0 0.0
2018-Sep-22 19:03N 50°58' E 001°51'0 0.0
2018-Sep-22 18:58N 50°58' E 001°51'0 0.0
2018-Sep-22 18:30N 50°58' E 001°51'4 8.6
2018-Sep-22 18:04N 50°58' E 001°45'118.1
2018-Sep-22 18:01N 50°58' E 001°44'918.7
2018-Sep-22 17:31N 51°03' E 001°31'817.7
2018-Sep-22 17:03N 51°07' E 001°20'0 0.1
2018-Sep-22 16:56N 51°07' E 001°20'0 0.0
2018-Sep-22 16:31N 51°07' E 001°20'0 0.2
2018-Sep-22 15:57N 51°07' E 001°20'614.0
2018-Sep-22 15:30N 51°05' E 001°29'920.0
2018-Sep-22 15:04N 50°60' E 001°41'120.1
2018-Sep-22 15:01N 50°59' E 001°42'610.9
2018-Sep-22 14:30N 50°58' E 001°51'0 0.0
2018-Sep-22 13:59N 50°58' E 001°51'0 0.0
2018-Sep-22 13:28N 50°58' E 001°51'4 9.5
2018-Sep-22 13:04N 50°58' E 001°45'119.8
2018-Sep-22 13:01N 50°58' E 001°43'1019.9
2018-Sep-22 12:30N 51°03' E 001°30'716.1
2018-Sep-22 12:03N 51°07' E 001°20'0 0.0
2018-Sep-22 12:00N 51°07' E 001°20'0 0.0
2018-Sep-22 11:30N 51°07' E 001°20'0 0.2
2018-Sep-22 11:02N 51°07' E 001°20'0 3.2
2018-Sep-22 11:00N 51°07' E 001°20'713.9
2018-Sep-22 10:31N 51°05' E 001°30'818.2
2018-Sep-22 10:04N 51°00' E 001°41'118.0
2018-Sep-22 10:01N 50°60' E 001°42'611.8
2018-Sep-22 09:30N 50°58' E 001°52'0 0.0
2018-Sep-22 09:03N 50°58' E 001°52'0 0.0
2018-Sep-22 09:00N 50°58' E 001°52'0 0.0
2018-Sep-22 08:30N 50°58' E 001°52'0 0.0
2018-Sep-22 08:03N 50°58' E 001°52'0 0.0
2018-Sep-22 08:00N 50°58' E 001°52'0 0.0
2018-Sep-22 07:30N 50°58' E 001°52'0 0.0
2018-Sep-22 07:03N 50°58' E 001°52'0 0.0
2018-Sep-22 07:00N 50°58' E 001°52'0 0.0
2018-Sep-22 06:30N 50°58' E 001°52'0 0.0
2018-Sep-22 06:03N 50°58' E 001°52'0 0.0
2018-Sep-22 06:00N 50°58' E 001°52'0 0.0
2018-Sep-22 05:30N 50°58' E 001°52'0 0.0
2018-Sep-22 05:03N 50°58' E 001°52'0 0.0
2018-Sep-22 05:00N 50°58' E 001°52'0 0.0
2018-Sep-22 04:30N 50°58' E 001°52'0 0.0
2018-Sep-22 04:03N 50°58' E 001°52'0 0.0
2018-Sep-22 04:00N 50°58' E 001°52'0 0.0
2018-Sep-22 03:30N 50°58' E 001°52'0 0.0
2018-Sep-22 03:03N 50°58' E 001°52'0 0.0
2018-Sep-22 03:00N 50°58' E 001°52'0 0.0
2018-Sep-22 02:30N 50°58' E 001°52'0 0.0
2018-Sep-22 02:03N 50°58' E 001°52'0 0.0
2018-Sep-22 02:00N 50°58' E 001°52'0 0.0
2018-Sep-22 01:29N 50°58' E 001°52'0 0.0
2018-Sep-22 01:03N 50°58' E 001°52'0 0.0
2018-Sep-22 01:00N 50°58' E 001°52'0 0.0
2018-Sep-22 00:30N 50°58' E 001°52'0 0.0
2018-Sep-22 00:03N 50°58' E 001°52'0 0.0
2018-Sep-22 00:00N 50°58' E 001°52'0 0.0
2018-Sep-21 23:29N 50°58' E 001°52'0 0.0
2018-Sep-21 23:03N 50°58' E 001°52'0 0.0
2018-Sep-21 22:59N 50°58' E 001°52'0 0.0
2018-Sep-21 22:30N 50°58' E 001°52'0 0.0
2018-Sep-21 22:03N 50°58' E 001°52'0 0.0
2018-Sep-21 22:00N 50°58' E 001°52'0 0.0
2018-Sep-21 21:30N 50°58' E 001°52'0 0.0
2018-Sep-21 21:04N 50°58' E 001°52'0 0.0
2018-Sep-21 21:00N 50°58' E 001°52'0 0.0
2018-Sep-21 20:30N 50°58' E 001°52'0 0.0
2018-Sep-21 20:04N 50°58' E 001°52'0 0.0
2018-Sep-21 20:01N 50°58' E 001°52'0 0.0
2018-Sep-21 19:31N 50°58' E 001°52'1 1.5
2018-Sep-21 19:03N 50°58' E 001°51'111.5
2018-Sep-21 19:00N 50°58' E 001°50'1019.0
2018-Sep-21 18:30N 50°59' E 001°35'818.4
2018-Sep-21 18:03N 51°04' E 001°25'118.9
2018-Sep-21 18:00N 51°05' E 001°24'3 5.3
2018-Sep-21 17:24N 51°07' E 001°20'0 0.0
2018-Sep-21 16:54N 51°07' E 001°20'411.0
2018-Sep-21 16:31N 51°07' E 001°27'817.2
2018-Sep-21 16:04N 51°02' E 001°36'115.5
2018-Sep-21 16:01N 51°01' E 001°37'715.0
2018-Sep-21 15:31N 50°58' E 001°48'2 4.7
2018-Sep-21 15:03N 50°58' E 001°52'0 0.0
2018-Sep-21 15:00N 50°58' E 001°52'0 0.0
2018-Sep-21 14:03N 50°58' E 001°52'2 3.0
2018-Sep-21 13:30N 50°58' E 001°49'818.1
2018-Sep-21 13:03N 51°01' E 001°37'119.2
2018-Sep-21 13:00N 51°01' E 001°35'1019.2
2018-Sep-21 12:30N 51°07' E 001°23'2 2.8
2018-Sep-21 11:51N 51°07' E 001°20'0 0.0
2018-Sep-21 11:28N 51°07' E 001°20'0 0.3
2018-Sep-21 11:03N 51°07' E 001°20'0 2.5
2018-Sep-21 11:01N 51°07' E 001°20'4 8.4
2018-Sep-21 10:30N 51°06' E 001°27'817.4
2018-Sep-21 10:03N 51°02' E 001°37'117.1
2018-Sep-21 10:00N 51°02' E 001°39'815.4
2018-Sep-21 09:31N 50°58' E 001°50'1 2.2
2018-Sep-21 09:03N 50°58' E 001°51'0 0.0
2018-Sep-21 09:00N 50°58' E 001°51'0 0.0
2018-Sep-21 08:27N 50°58' E 001°51'0 0.0
2018-Sep-21 07:58N 50°58' E 001°51'0 0.0
2018-Sep-21 07:26N 50°58' E 001°51'0 0.0
2018-Sep-21 07:02N 50°58' E 001°51'0 0.0
2018-Sep-21 07:00N 50°58' E 001°51'0 0.0
2018-Sep-21 06:30N 50°58' E 001°51'0 0.0
2018-Sep-21 06:03N 50°58' E 001°51'0 0.0
2018-Sep-21 06:00N 50°58' E 001°51'0 0.0
2018-Sep-21 05:30N 50°58' E 001°51'0 0.0
2018-Sep-21 05:03N 50°58' E 001°51'0 0.0
2018-Sep-21 05:00N 50°58' E 001°51'0 0.0
2018-Sep-21 04:30N 50°58' E 001°51'0 0.0
2018-Sep-21 04:03N 50°58' E 001°51'0 0.0
2018-Sep-21 04:01N 50°58' E 001°51'0 0.0
2018-Sep-21 03:30N 50°58' E 001°51'0 0.0
2018-Sep-21 03:02N 50°58' E 001°51'0 0.0
2018-Sep-21 03:01N 50°58' E 001°51'0 0.0
2018-Sep-21 02:30N 50°58' E 001°51'0 0.0
2018-Sep-21 02:03N 50°58' E 001°51'0 0.0
2018-Sep-21 02:00N 50°58' E 001°51'0 0.0
2018-Sep-21 01:30N 50°58' E 001°51'0 0.0
2018-Sep-21 01:03N 50°58' E 001°51'0 0.0
2018-Sep-21 01:00N 50°58' E 001°51'0 0.0
2018-Sep-21 00:30N 50°58' E 001°51'0 0.0
2018-Sep-21 00:03N 50°58' E 001°51'0 0.0
2018-Sep-21 00:00N 50°58' E 001°51'0 0.0
2018-Sep-20 23:29N 50°58' E 001°51'0 0.0
2018-Sep-20 23:03N 50°58' E 001°51'0 0.0
2018-Sep-20 23:00N 50°58' E 001°51'0 0.0
2018-Sep-20 22:30N 50°58' E 001°51'0 0.0
2018-Sep-20 22:03N 50°58' E 001°51'0 0.0
2018-Sep-20 21:59N 50°58' E 001°51'0 0.0
2018-Sep-20 21:30N 50°58' E 001°51'0 0.0
2018-Sep-20 21:04N 50°58' E 001°51'0 0.0
2018-Sep-20 21:00N 50°58' E 001°51'0 0.0
2018-Sep-20 20:30N 50°58' E 001°51'0 0.0
2018-Sep-20 20:02N 50°58' E 001°51'0 0.0
2018-Sep-20 20:00N 50°58' E 001°51'0 0.0
2018-Sep-20 19:30N 50°58' E 001°51'0 0.0
2018-Sep-20 19:03N 50°58' E 001°51'0 0.0
2018-Sep-20 19:00N 50°58' E 001°51'0 0.0
2018-Sep-20 18:30N 50°58' E 001°51'1 2.0
2018-Sep-20 18:03N 50°58' E 001°50'117.5
2018-Sep-20 18:00N 50°58' E 001°48'918.6
2018-Sep-20 17:30N 51°01' E 001°34'919.4
2018-Sep-20 17:03N 51°06' E 001°23'119.0
2018-Sep-20 17:01N 51°07' E 001°22'1 2.1
2018-Sep-20 16:27N 51°07' E 001°20'0 0.0
2018-Sep-20 16:03N 51°07' E 001°20'0 1.5
2018-Sep-20 16:00N 51°07' E 001°20'815.8
2018-Sep-20 15:31N 51°04' E 001°31'919.9
2018-Sep-20 15:03N 50°59' E 001°43'119.9
2018-Sep-20 15:01N 50°58' E 001°44'4 4.3
2018-Sep-20 14:03N 50°58' E 001°51'0 0.0
2018-Sep-20 14:01N 50°58' E 001°51'0 0.0
2018-Sep-20 13:31N 50°58' E 001°51'4 9.9
2018-Sep-20 13:03N 50°58' E 001°44'118.0
2018-Sep-20 13:00N 50°58' E 001°43'919.0
2018-Sep-20 12:31N 51°02' E 001°29'815.7
2018-Sep-20 12:00N 51°07' E 001°20'0 0.0
2018-Sep-20 11:21N 51°07' E 001°20'0 0.0
2018-Sep-20 10:59N 51°07' E 001°20'4 8.6
2018-Sep-20 10:31N 51°06' E 001°26'818.7
2018-Sep-20 10:04N 51°02' E 001°38'118.5
2018-Sep-20 10:01N 51°01' E 001°39'816.5
2018-Sep-20 09:30N 50°58' E 001°51'0 0.8
2018-Sep-20 09:03N 50°58' E 001°52'0 0.0
2018-Sep-20 09:00N 50°58' E 001°52'0 0.0
2018-Sep-20 08:31N 50°58' E 001°52'0 0.0
2018-Sep-20 08:04N 50°58' E 001°52'0 0.0
2018-Sep-20 08:00N 50°58' E 001°52'0 0.0
2018-Sep-20 07:30N 50°58' E 001°52'0 0.0
2018-Sep-20 07:03N 50°58' E 001°52'0 0.0
2018-Sep-20 07:00N 50°58' E 001°52'0 0.0
2018-Sep-20 06:30N 50°58' E 001°52'0 0.0
2018-Sep-20 06:04N 50°58' E 001°52'0 0.0
2018-Sep-20 06:00N 50°58' E 001°52'0 0.0
2018-Sep-20 05:30N 50°58' E 001°52'0 0.0
2018-Sep-20 05:04N 50°58' E 001°52'0 0.0
2018-Sep-20 05:00N 50°58' E 001°52'0 0.0
2018-Sep-20 04:30N 50°58' E 001°52'0 0.0
2018-Sep-20 04:02N 50°58' E 001°52'0 0.0
2018-Sep-20 03:59N 50°58' E 001°52'0 0.0
2018-Sep-20 03:30N 50°58' E 001°52'0 0.0
2018-Sep-20 03:03N 50°58' E 001°52'0 0.0
2018-Sep-20 03:00N 50°58' E 001°52'0 0.0
2018-Sep-20 02:31N 50°58' E 001°52'0 0.0
2018-Sep-20 02:03N 50°58' E 001°52'0 0.0
2018-Sep-20 02:00N 50°58' E 001°52'0 0.0
2018-Sep-20 01:30N 50°58' E 001°52'0 0.0
2018-Sep-20 01:04N 50°58' E 001°52'0 0.0
2018-Sep-20 01:01N 50°58' E 001°52'0 0.0
2018-Sep-20 00:30N 50°58' E 001°52'0 0.0
2018-Sep-20 00:03N 50°58' E 001°52'0 0.0
2018-Sep-20 00:00N 50°58' E 001°52'0 0.0
2018-Sep-19 23:31N 50°58' E 001°52'0 0.0
2018-Sep-19 23:03N 50°58' E 001°52'0 0.0
2018-Sep-19 23:00N 50°58' E 001°52'0 0.0
2018-Sep-19 22:30N 50°58' E 001°52'0 0.0
2018-Sep-19 22:04N 50°58' E 001°52'0 0.0
2018-Sep-19 22:01N 50°58' E 001°52'0 0.0
2018-Sep-19 21:31N 50°58' E 001°52'0 0.0
2018-Sep-19 21:04N 50°58' E 001°52'0 0.0
2018-Sep-19 21:01N 50°58' E 001°52'0 0.0
2018-Sep-19 20:31N 50°58' E 001°52'0 0.0
2018-Sep-19 20:04N 50°58' E 001°52'0 0.0
2018-Sep-19 20:01N 50°58' E 001°52'0 0.0
2018-Sep-19 19:30N 50°58' E 001°52'0 0.0
2018-Sep-19 19:03N 50°58' E 001°52'0 0.0
2018-Sep-19 19:01N 50°58' E 001°52'0 0.5
2018-Sep-19 18:30N 50°58' E 001°51'613.8
2018-Sep-19 18:03N 50°58' E 001°41'121.1
2018-Sep-19 18:00N 50°58' E 001°40'1019.7
2018-Sep-19 17:30N 51°04' E 001°27'611.3
2018-Sep-19 17:01N 51°07' E 001°20'0 0.0
2018-Sep-19 17:01N 51°07' E 001°20'0 0.0
2018-Sep-19 16:31N 51°07' E 001°20'0 0.4
2018-Sep-19 16:03N 51°07' E 001°20'0 0.6
2018-Sep-19 16:01N 51°07' E 001°20'815.8
2018-Sep-19 15:31N 51°04' E 001°31'818.8
2018-Sep-19 15:03N 50°59' E 001°43'118.7
2018-Sep-19 15:00N 50°59' E 001°44'5 4.9
2018-Sep-19 14:00N 50°58' E 001°52'0 0.0
2018-Sep-19 13:30N 50°58' E 001°52'512.2
2018-Sep-19 13:03N 50°58' E 001°43'118.7
2018-Sep-19 13:00N 50°58' E 001°42'918.6
2018-Sep-19 12:31N 51°04' E 001°30'715.7
2018-Sep-19 12:03N 51°07' E 001°20'0 0.0
2018-Sep-19 12:00N 51°07' E 001°20'0 0.0
2018-Sep-19 11:23N 51°07' E 001°20'0 0.2
2018-Sep-19 11:04N 51°07' E 001°20'0 1.9
2018-Sep-19 11:00N 51°07' E 001°20'815.3
2018-Sep-19 10:30N 51°05' E 001°32'818.8
2018-Sep-19 10:03N 50°59' E 001°42'118.4
2018-Sep-19 10:00N 50°59' E 001°43'5 7.7
2018-Sep-19 09:19N 50°58' E 001°52'0 0.0
2018-Sep-19 09:01N 50°58' E 001°52'0 0.0
2018-Sep-19 08:55N 50°58' E 001°52'0 0.0
2018-Sep-19 08:28N 50°58' E 001°52'0 0.0
2018-Sep-19 07:55N 50°58' E 001°52'0 0.0
2018-Sep-19 07:25N 50°58' E 001°52'0 0.0
2018-Sep-19 07:01N 50°58' E 001°52'0 0.0
2018-Sep-19 06:58N 50°58' E 001°52'0 0.0
2018-Sep-19 06:28N 50°58' E 001°52'0 0.0
2018-Sep-19 05:58N 50°58' E 001°52'0 0.0
2018-Sep-19 05:28N 50°58' E 001°52'0 0.0
2018-Sep-19 05:01N 50°58' E 001°52'0 0.0
2018-Sep-19 04:49N 50°58' E 001°52'0 0.0
2018-Sep-19 04:25N 50°58' E 001°52'0 0.0
2018-Sep-19 04:01N 50°58' E 001°52'0 0.0
2018-Sep-19 03:58N 50°58' E 001°52'0 0.0
2018-Sep-19 03:28N 50°58' E 001°52'0 0.0
2018-Sep-19 03:01N 50°58' E 001°52'0 0.0
2018-Sep-19 02:58N 50°58' E 001°52'0 0.0
2018-Sep-19 02:28N 50°58' E 001°52'0 0.0
2018-Sep-19 02:01N 50°58' E 001°52'0 0.0
2018-Sep-19 01:58N 50°58' E 001°52'0 0.0
2018-Sep-19 01:28N 50°58' E 001°52'0 0.0
2018-Sep-19 00:52N 50°58' E 001°52'0 0.0
2018-Sep-19 00:22N 50°58' E 001°52'0 0.0
2018-Sep-19 00:01N 50°58' E 001°52'0 0.0
2018-Sep-18 23:49N 50°58' E 001°52'0 0.0
2018-Sep-18 23:25N 50°58' E 001°52'0 0.0
2018-Sep-18 23:01N 50°58' E 001°52'0 0.0
2018-Sep-18 22:58N 50°58' E 001°52'0 0.0
2018-Sep-18 22:25N 50°58' E 001°52'0 0.0
2018-Sep-18 22:01N 50°58' E 001°52'0 0.0
2018-Sep-18 21:58N 50°58' E 001°52'0 0.0
2018-Sep-18 21:30N 50°58' E 001°52'0 0.0
2018-Sep-18 21:03N 50°58' E 001°52'0 0.0
2018-Sep-18 20:59N 50°58' E 001°52'0 0.0
2018-Sep-18 20:30N 50°58' E 001°52'0 0.0
2018-Sep-18 20:03N 50°58' E 001°52'0 0.0
2018-Sep-18 20:00N 50°58' E 001°52'1 2.7
2018-Sep-18 19:30N 50°58' E 001°50'511.3
2018-Sep-18 19:03N 50°59' E 001°42'119.2
2018-Sep-18 19:00N 50°59' E 001°40'1019.1
2018-Sep-18 18:30N 51°04' E 001°28'6 5.9
2018-Sep-18 17:33N 51°07' E 001°20'0 0.0
2018-Sep-18 17:28N 51°07' E 001°20'0 0.5
2018-Sep-18 17:03N 51°07' E 001°20'0 2.5
2018-Sep-18 17:01N 51°07' E 001°20'816.8
2018-Sep-18 16:31N 51°03' E 001°32'818.3
2018-Sep-18 16:04N 50°59' E 001°43'117.6
2018-Sep-18 16:00N 50°58' E 001°44'5 9.4
2018-Sep-18 15:30N 50°58' E 001°52'0 0.0
2018-Sep-18 15:03N 50°58' E 001°52'0 0.0
2018-Sep-18 15:00N 50°58' E 001°52'6 6.5
2018-Sep-18 14:03N 50°58' E 001°42'114.4
2018-Sep-18 14:00N 50°59' E 001°41'714.0
2018-Sep-18 13:30N 51°03' E 001°32'614.0
2018-Sep-18 13:03N 51°06' E 001°23'114.3
2018-Sep-18 13:00N 51°06' E 001°22'2 2.1
2018-Sep-18 12:12N 51°07' E 001°20'0 0.0
2018-Sep-18 11:56N 51°07' E 001°20'1 1.3
2018-Sep-18 11:30N 51°07' E 001°21'3 6.3
2018-Sep-18 11:03N 51°08' E 001°25'0 1.5
2018-Sep-18 11:00N 51°08' E 001°25'1 1.3
2018-Sep-18 10:30N 51°08' E 001°26'4 9.7
2018-Sep-18 10:03N 51°06' E 001°32'118.8
2018-Sep-18 10:01N 51°05' E 001°33'918.1
2018-Sep-18 09:30N 50°59' E 001°44'511.3
2018-Sep-18 09:03N 50°58' E 001°52'0 0.0
2018-Sep-18 09:00N 50°58' E 001°52'0 0.0
2018-Sep-18 08:28N 50°58' E 001°52'0 0.0
2018-Sep-18 07:58N 50°58' E 001°52'0 0.0
2018-Sep-18 07:25N 50°58' E 001°52'0 0.0
2018-Sep-18 06:58N 50°58' E 001°52'0 0.0
2018-Sep-18 06:10N 50°58' E 001°52'0 0.0
2018-Sep-18 06:01N 50°58' E 001°52'0 0.0
2018-Sep-18 05:58N 50°58' E 001°52'0 0.0
2018-Sep-18 05:28N 50°58' E 001°52'0 0.0
2018-Sep-18 05:01N 50°58' E 001°52'0 0.0
2018-Sep-18 04:52N 50°58' E 001°52'0 0.0
2018-Sep-18 04:28N 50°58' E 001°52'0 0.0
2018-Sep-18 04:01N 50°58' E 001°52'0 0.0
2018-Sep-18 03:52N 50°58' E 001°52'0 0.0
2018-Sep-18 03:28N 50°58' E 001°52'0 0.0
2018-Sep-18 03:01N 50°58' E 001°52'0 0.0
2018-Sep-18 02:58N 50°58' E 001°52'0 0.0
2018-Sep-18 02:25N 50°58' E 001°52'0 0.0
2018-Sep-18 02:01N 50°58' E 001°52'0 0.0
2018-Sep-18 01:55N 50°58' E 001°52'0 0.0
2018-Sep-18 01:28N 50°58' E 001°52'0 0.0
2018-Sep-18 01:01N 50°58' E 001°52'0 0.0
2018-Sep-18 00:58N 50°58' E 001°52'0 0.0
2018-Sep-18 00:19N 50°58' E 001°52'0 0.0
2018-Sep-18 00:01N 50°58' E 001°52'0 0.0
2018-Sep-17 23:58N 50°58' E 001°52'0 0.0
2018-Sep-17 23:28N 50°58' E 001°52'0 0.0
2018-Sep-17 22:58N 50°58' E 001°52'0 0.0
2018-Sep-17 22:22N 50°58' E 001°52'0 0.0
2018-Sep-17 22:01N 50°58' E 001°52'0 0.1
2018-Sep-17 21:58N 50°58' E 001°52'0 0.0
2018-Sep-17 21:28N 50°58' E 001°52'0 0.0
2018-Sep-17 20:58N 50°58' E 001°52'0 0.0
2018-Sep-17 20:28N 50°58' E 001°52'0 0.0
2018-Sep-17 19:55N 50°58' E 001°52'0 0.0
2018-Sep-17 19:30N 50°58' E 001°52'0 0.0
2018-Sep-17 19:03N 50°58' E 001°52'0 0.0
2018-Sep-17 19:00N 50°58' E 001°52'0 0.0
2018-Sep-17 18:31N 50°58' E 001°52'3 6.3
2018-Sep-17 18:03N 50°58' E 001°47'113.8
2018-Sep-17 18:00N 50°58' E 001°46'917.9
2018-Sep-17 17:30N 51°02' E 001°33'818.2
2018-Sep-17 17:03N 51°06' E 001°22'117.4
2018-Sep-17 17:00N 51°07' E 001°21'1 1.9
2018-Sep-17 16:30N 51°07' E 001°20'0 0.1
2018-Sep-17 16:03N 51°07' E 001°20'0 1.6
2018-Sep-17 16:00N 51°07' E 001°20'816.1
2018-Sep-17 15:31N 51°05' E 001°32'818.5
2018-Sep-17 15:04N 50°59' E 001°42'118.7
2018-Sep-17 15:01N 50°59' E 001°44'5 9.4
2018-Sep-17 14:30N 50°58' E 001°51'0 0.0
2018-Sep-17 14:00N 50°58' E 001°51'0 0.0
2018-Sep-17 13:31N 50°58' E 001°51'3 7.6
2018-Sep-17 13:03N 50°58' E 001°46'118.7
2018-Sep-17 13:00N 50°58' E 001°44'918.7
2018-Sep-17 12:30N 51°03' E 001°31'818.1
2018-Sep-17 12:03N 51°07' E 001°20'0 2.8
2018-Sep-17 11:59N 51°07' E 001°20'0 0.0
2018-Sep-17 11:29N 51°07' E 001°20'0 0.0
2018-Sep-17 11:00N 51°07' E 001°20'3 5.4
2018-Sep-17 10:31N 51°07' E 001°24'919.9
2018-Sep-17 10:03N 51°02' E 001°36'120.3
2018-Sep-17 10:00N 51°01' E 001°37'918.2
2018-Sep-17 09:31N 50°58' E 001°51'0 0.8
2018-Sep-17 09:01N 50°58' E 001°52'0 0.0
2018-Sep-17 08:49N 50°58' E 001°52'0 0.0
2018-Sep-17 08:28N 50°58' E 001°52'0 0.4
2018-Sep-17 07:55N 50°58' E 001°52'0 0.0
2018-Sep-17 07:25N 50°58' E 001°52'0 0.0
2018-Sep-17 07:01N 50°58' E 001°52'0 0.0
2018-Sep-17 06:55N 50°58' E 001°52'0 0.0
2018-Sep-17 06:28N 50°58' E 001°52'0 0.0
2018-Sep-17 05:46N 50°58' E 001°52'0 0.0
2018-Sep-17 05:19N 50°58' E 001°52'0 0.0
2018-Sep-17 04:55N 50°58' E 001°52'0 0.0
2018-Sep-17 04:28N 50°58' E 001°52'0 0.0
2018-Sep-17 03:55N 50°58' E 001°52'0 0.0
2018-Sep-17 03:28N 50°58' E 001°52'0 0.0
2018-Sep-17 02:48N 50°58' E 001°52'0 0.0
2018-Sep-17 02:20N 50°58' E 001°52'0 0.0
2018-Sep-17 01:50N 50°58' E 001°52'0 0.0
2018-Sep-17 01:14N 50°58' E 001°52'0 0.0
2018-Sep-17 01:02N 50°58' E 001°52'0 0.0
2018-Sep-17 00:50N 50°58' E 001°52'0 0.0
2018-Sep-17 00:29N 50°58' E 001°52'0 0.0
2018-Sep-16 23:59N 50°58' E 001°52'0 0.0
2018-Sep-16 23:29N 50°58' E 001°52'0 0.0
2018-Sep-16 22:56N 50°58' E 001°52'0 0.0
2018-Sep-16 22:26N 50°58' E 001°52'0 0.0
2018-Sep-16 22:02N 50°58' E 001°52'0 0.0
2018-Sep-16 21:59N 50°58' E 001°52'0 0.0
2018-Sep-16 21:26N 50°58' E 001°52'0 0.0
2018-Sep-16 21:02N 50°58' E 001°52'0 0.1
2018-Sep-16 20:59N 50°58' E 001°52'0 0.0
2018-Sep-16 20:29N 50°58' E 001°52'0 0.0
2018-Sep-16 20:02N 50°58' E 001°52'0 0.0
2018-Sep-16 19:59N 50°58' E 001°52'0 0.0
2018-Sep-16 19:31N 50°58' E 001°52'0 0.4
2018-Sep-16 19:03N 50°58' E 001°52'0 1.0
2018-Sep-16 19:00N 50°58' E 001°52'0 0.0
2018-Sep-16 18:30N 50°58' E 001°52'1 1.7
2018-Sep-16 18:03N 50°58' E 001°51'112.4
2018-Sep-16 18:00N 50°58' E 001°50'816.4
2018-Sep-16 17:30N 50°59' E 001°37'817.5
2018-Sep-16 17:03N 51°05' E 001°27'118.5
2018-Sep-16 17:00N 51°05' E 001°26'4 8.0
2018-Sep-16 16:28N 51°07' E 001°20'0 0.0
2018-Sep-16 16:03N 51°07' E 001°20'0 0.5
2018-Sep-16 16:00N 51°07' E 001°20'612.0
2018-Sep-16 15:30N 51°05' E 001°29'818.4
2018-Sep-16 15:04N 51°00' E 001°40'118.4
2018-Sep-16 15:01N 50°60' E 001°41'7 6.2
2018-Sep-16 13:55N 50°58' E 001°51'0 0.0
2018-Sep-16 13:19N 50°58' E 001°51'0 0.0
2018-Sep-16 13:01N 50°58' E 001°51'0 0.0
2018-Sep-16 12:55N 50°58' E 001°51'0 0.0
2018-Sep-16 12:28N 50°58' E 001°51'0 0.0
2018-Sep-16 12:01N 50°58' E 001°51'0 0.0
2018-Sep-16 11:55N 50°58' E 001°51'0 0.0
2018-Sep-16 11:28N 50°58' E 001°51'0 0.0
2018-Sep-16 11:01N 50°58' E 001°51'0 0.0
2018-Sep-16 10:52N 50°58' E 001°51'0 0.0
2018-Sep-16 10:25N 50°58' E 001°51'0 0.0
2018-Sep-16 10:01N 50°58' E 001°51'0 0.0
2018-Sep-16 09:58N 50°58' E 001°51'0 0.0
2018-Sep-16 09:25N 50°58' E 001°51'0 0.0
2018-Sep-16 08:59N 50°58' E 001°51'0 0.0
2018-Sep-16 08:22N 50°58' E 001°51'0 0.4
2018-Sep-16 08:02N 50°58' E 001°51'0 3.3
2018-Sep-16 08:00N 50°58' E 001°51'1 1.2
2018-Sep-16 07:28N 50°58' E 001°52'0 0.0
2018-Sep-16 06:49N 50°58' E 001°52'0 0.0
2018-Sep-16 06:28N 50°58' E 001°52'0 0.0
2018-Sep-16 06:01N 50°58' E 001°52'0 0.0
2018-Sep-16 05:58N 50°58' E 001°52'0 0.0
2018-Sep-16 05:28N 50°58' E 001°52'0 0.0
2018-Sep-16 05:01N 50°58' E 001°52'0 0.0
2018-Sep-16 04:55N 50°58' E 001°52'0 0.0
2018-Sep-16 04:28N 50°58' E 001°52'0 0.0
2018-Sep-16 04:01N 50°58' E 001°52'0 0.0
2018-Sep-16 03:58N 50°58' E 001°52'0 0.0
2018-Sep-16 03:25N 50°58' E 001°52'0 0.0
2018-Sep-16 03:01N 50°58' E 001°52'0 0.0
2018-Sep-16 02:49N 50°58' E 001°52'0 0.0
2018-Sep-16 02:28N 50°58' E 001°52'0 0.0
2018-Sep-16 02:01N 50°58' E 001°52'0 0.0
2018-Sep-16 01:58N 50°58' E 001°52'0 0.0
2018-Sep-16 01:28N 50°58' E 001°52'0 0.0
2018-Sep-16 01:01N 50°58' E 001°52'0 0.0
2018-Sep-16 00:55N 50°58' E 001°52'0 0.0
2018-Sep-16 00:28N 50°58' E 001°52'0 0.0
2018-Sep-16 00:01N 50°58' E 001°52'0 0.0
2018-Sep-15 23:49N 50°58' E 001°52'0 0.0
2018-Sep-15 23:28N 50°58' E 001°52'0 0.0
2018-Sep-15 22:58N 50°58' E 001°52'0 0.0
2018-Sep-15 22:16N 50°58' E 001°52'0 0.0
2018-Sep-15 21:52N 50°58' E 001°52'0 0.0
2018-Sep-15 21:28N 50°58' E 001°52'0 0.0
2018-Sep-15 20:58N 50°58' E 001°52'0 0.0
2018-Sep-15 20:22N 50°58' E 001°52'0 0.0
2018-Sep-15 19:55N 50°58' E 001°52'0 0.0
2018-Sep-15 19:31N 50°58' E 001°52'1 1.5
2018-Sep-15 19:02N 50°58' E 001°51'0 0.6
2018-Sep-15 19:00N 50°58' E 001°51'611.0
2018-Sep-15 18:30N 50°58' E 001°42'716.0
2018-Sep-15 18:03N 51°02' E 001°33'120.2
2018-Sep-15 18:00N 51°03' E 001°32'916.7
2018-Sep-15 17:30N 51°07' E 001°20'0 0.0
2018-Sep-15 17:01N 51°07' E 001°20'0 0.0
2018-Sep-15 16:59N 51°07' E 001°20'0 0.0
2018-Sep-15 16:28N 51°07' E 001°20'0 0.3
2018-Sep-15 16:04N 51°07' E 001°20'0 4.9
2018-Sep-15 16:00N 51°07' E 001°21'816.4
2018-Sep-15 15:30N 51°06' E 001°33'1019.7
2018-Sep-15 15:00N 50°59' E 001°44'4 4.7
2018-Sep-15 14:04N 50°58' E 001°51'0 0.0
2018-Sep-15 14:00N 50°58' E 001°51'0 0.0
2018-Sep-15 13:29N 50°58' E 001°51'3 6.4
2018-Sep-15 13:03N 50°58' E 001°47'119.6
2018-Sep-15 13:00N 50°58' E 001°45'1019.0
2018-Sep-15 12:30N 51°01' E 001°31'714.7
2018-Sep-15 12:03N 51°05' E 001°22'113.3
2018-Sep-15 12:00N 51°06' E 001°22'2 4.1
2018-Sep-15 11:30N 51°07' E 001°20'0 0.0
2018-Sep-15 11:01N 51°07' E 001°20'0 0.0
2018-Sep-15 11:00N 51°07' E 001°20'3 6.5
2018-Sep-15 10:30N 51°07' E 001°25'818.2
2018-Sep-15 10:04N 51°02' E 001°36'118.7
2018-Sep-15 10:00N 51°01' E 001°37'917.7
2018-Sep-15 09:30N 50°58' E 001°50'1 2.7
2018-Sep-15 09:03N 50°58' E 001°52'0 0.0
2018-Sep-15 09:00N 50°58' E 001°52'0 0.0
2018-Sep-15 08:30N 50°58' E 001°52'0 0.0
2018-Sep-15 08:03N 50°58' E 001°52'0 0.0
2018-Sep-15 08:00N 50°58' E 001°52'0 0.0
2018-Sep-15 07:30N 50°58' E 001°52'0 0.0
2018-Sep-15 06:57N 50°58' E 001°52'0 0.0
2018-Sep-15 06:30N 50°58' E 001°52'0 0.0
2018-Sep-15 05:54N 50°58' E 001°52'0 0.0
2018-Sep-15 05:30N 50°58' E 001°52'0 0.0
2018-Sep-15 05:00N 50°58' E 001°52'0 0.0
2018-Sep-15 04:21N 50°58' E 001°52'0 0.0
2018-Sep-15 04:03N 50°58' E 001°52'0 0.0
2018-Sep-15 03:57N 50°58' E 001°52'0 0.0
2018-Sep-15 03:27N 50°58' E 001°52'0 0.0
2018-Sep-15 03:03N 50°58' E 001°52'0 0.0
2018-Sep-15 03:00N 50°58' E 001°52'0 0.0
2018-Sep-15 02:27N 50°58' E 001°52'0 0.0
2018-Sep-15 02:03N 50°58' E 001°52'0 0.0
2018-Sep-15 02:00N 50°58' E 001°52'0 0.0
2018-Sep-15 01:27N 50°58' E 001°52'0 0.0
2018-Sep-15 01:03N 50°58' E 001°52'0 0.0
2018-Sep-15 00:57N 50°58' E 001°52'0 0.0
2018-Sep-15 00:27N 50°58' E 001°52'0 0.0
2018-Sep-15 00:03N 50°58' E 001°52'0 0.0
2018-Sep-14 23:57N 50°58' E 001°52'0 0.0
2018-Sep-14 23:27N 50°58' E 001°52'0 0.0
2018-Sep-14 22:57N 50°58' E 001°52'0 0.0
2018-Sep-14 22:21N 50°58' E 001°52'0 0.0
2018-Sep-14 22:03N 50°58' E 001°52'0 0.0
2018-Sep-14 22:00N 50°58' E 001°52'0 0.0
2018-Sep-14 21:30N 50°58' E 001°52'0 0.0
2018-Sep-14 21:03N 50°58' E 001°52'  
Track history (hours):
 
Tides and Currents Weather Stations Pressure Air Temp Water Temp Dewpoint Dewpoint Depression Visibility Wind Speed Wind Dir Waves Ship Positions

European Seaway

Operator: P & O Ferries

Last reported at 2018-Sep-24 21:03 UTC. Time now 2018-Sep-24 21:07 UTC.
Position N 50°58' E 001°52'.

Length 180 m; draft 5.5 m.

Type: Passenger vessel. MMSI: 232001040.

Date/timePositionNaut miles runAvg speedWind from/ knotsBaromVisibWave heightAir tempDewpointWater temp
2018-Sep-24 21:03N 50°58' E 001°52'0 0.0
2018-Sep-24 21:00N 50°58' E 001°52'0 0.0
2018-Sep-24 20:30N 50°58' E 001°52'0 0.0
2018-Sep-24 20:03N 50°58' E 001°52'0 0.0
2018-Sep-24 20:00N 50°58' E 001°52'0 0.0
2018-Sep-24 19:30N 50°58' E 001°52'0 0.7
2018-Sep-24 19:03N 50°58' E 001°52'0 0.8
2018-Sep-24 19:00N 50°58' E 001°52'0 0.0
2018-Sep-24 18:30N 50°58' E 001°52'3 6.8
2018-Sep-24 18:04N 50°58' E 001°47'114.6
2018-Sep-24 18:01N 50°58' E 001°46'917.4
2018-Sep-24 17:31N 51°01' E 001°33'919.4
2018-Sep-24 17:03N 51°07' E 001°22'117.6
2018-Sep-24 17:00N 51°07' E 001°21'1 1.1
2018-Sep-24 16:29N 51°07' E 001°20'0 0.0
2018-Sep-24 16:02N 51°07' E 001°20'0 0.6
2018-Sep-24 16:00N 51°07' E 001°20'612.5
2018-Sep-24 15:30N 51°06' E 001°30'919.5
2018-Sep-24 15:03N 51°00' E 001°40'119.6
2018-Sep-24 15:00N 50°60' E 001°42'612.1
2018-Sep-24 14:30N 50°58' E 001°51'0 0.0
2018-Sep-24 14:00N 50°58' E 001°51'0 0.0
2018-Sep-24 13:30N 50°58' E 001°51'4 9.7
2018-Sep-24 13:03N 50°58' E 001°44'120.6
2018-Sep-24 13:00N 50°58' E 001°42'919.1
2018-Sep-24 12:31N 51°03' E 001°30'810.2
2018-Sep-24 11:46N 51°07' E 001°20'0 0.0
2018-Sep-24 11:05N 51°07' E 001°20'0 0.0
2018-Sep-24 11:03N 51°07' E 001°20'0 0.0
2018-Sep-24 10:59N 51°07' E 001°20'1 2.1
2018-Sep-24 10:31N 51°07' E 001°22'817.6
2018-Sep-24 10:03N 51°03' E 001°33'119.4
2018-Sep-24 10:01N 51°03' E 001°34'918.6
2018-Sep-24 09:31N 50°58' E 001°47'3 6.0
2018-Sep-24 09:03N 50°58' E 001°51'0 0.0
2018-Sep-24 08:57N 50°58' E 001°51'0 0.0
2018-Sep-24 08:29N 50°58' E 001°51'0 0.0
2018-Sep-24 08:03N 50°58' E 001°51'0 0.0
2018-Sep-24 08:00N 50°58' E 001°51'0 0.0
2018-Sep-24 07:29N 50°58' E 001°51'0 0.0
2018-Sep-24 07:03N 50°58' E 001°51'0 0.0
2018-Sep-24 07:00N 50°58' E 001°51'0 0.0
2018-Sep-24 06:29N 50°58' E 001°51'0 0.0
2018-Sep-24 06:03N 50°58' E 001°51'0 0.0
2018-Sep-24 06:00N 50°58' E 001°51'0 0.0
2018-Sep-24 05:30N 50°58' E 001°51'0 0.0
2018-Sep-24 05:03N 50°58' E 001°51'0 0.0
2018-Sep-24 05:00N 50°58' E 001°51'0 0.0
2018-Sep-24 04:30N 50°58' E 001°51'0 0.0
2018-Sep-24 04:03N 50°58' E 001°51'0 0.0
2018-Sep-24 04:00N 50°58' E 001°51'0 0.0
2018-Sep-24 03:30N 50°58' E 001°51'0 0.0
2018-Sep-24 03:03N 50°58' E 001°51'0 0.0
2018-Sep-24 03:00N 50°58' E 001°51'0 0.0
2018-Sep-24 02:30N 50°58' E 001°51'0 0.0
2018-Sep-24 01:59N 50°58' E 001°51'0 0.0
2018-Sep-24 01:28N 50°58' E 001°51'0 0.0
2018-Sep-24 01:03N 50°58' E 001°51'0 0.0
2018-Sep-24 01:00N 50°58' E 001°51'0 0.0
2018-Sep-24 00:30N 50°58' E 001°51'0 0.0
2018-Sep-24 00:03N 50°58' E 001°51'0 0.0
2018-Sep-24 00:00N 50°58' E 001°51'0 0.0
2018-Sep-23 23:30N 50°58' E 001°51'0 0.0
2018-Sep-23 23:02N 50°58' E 001°51'0 0.0
2018-Sep-23 22:58N 50°58' E 001°51'0 0.0
2018-Sep-23 22:29N 50°58' E 001°51'0 0.0
2018-Sep-23 22:03N 50°58' E 001°51'0 0.0
2018-Sep-23 21:55N 50°58' E 001°51'0 0.0
2018-Sep-23 21:28N 50°58' E 001°51'0 0.0
2018-Sep-23 21:03N 50°58' E 001°51'0 0.0
2018-Sep-23 20:59N 50°58' E 001°51'0 0.0
2018-Sep-23 20:30N 50°58' E 001°51'0 0.0
2018-Sep-23 20:03N 50°58' E 001°51'0 0.0
2018-Sep-23 20:00N 50°58' E 001°51'0 0.0
2018-Sep-23 19:30N 50°58' E 001°51'0 0.0
2018-Sep-23 19:03N 50°58' E 001°51'0 0.0
2018-Sep-23 19:00N 50°58' E 001°51'2 3.2
2018-Sep-23 18:31N 50°58' E 001°48'613.8
2018-Sep-23 18:03N 50°58' E 001°39'117.9
2018-Sep-23 18:01N 50°59' E 001°37'816.9
2018-Sep-23 17:30N 51°04' E 001°27'610.1
2018-Sep-23 16:58N 51°07' E 001°20'0 0.0
2018-Sep-23 16:30N 51°07' E 001°20'2 5.3
2018-Sep-23 16:04N 51°07' E 001°24'116.2
2018-Sep-23 16:00N 51°07' E 001°25'918.7
2018-Sep-23 15:31N 51°02' E 001°38'817.7
2018-Sep-23 15:04N 50°58' E 001°49'116.3
2018-Sep-23 15:01N 50°58' E 001°50'1 0.5
2018-Sep-23 13:59N 50°58' E 001°51'0 0.0
2018-Sep-23 13:30N 50°58' E 001°51'0 0.0
2018-Sep-23 13:01N 50°58' E 001°51'0 0.0
2018-Sep-23 12:20N 50°58' E 001°51'0 0.0
2018-Sep-23 12:01N 50°58' E 001°51'0 0.0
2018-Sep-23 11:54N 50°58' E 001°51'0 0.0
2018-Sep-23 11:31N 50°58' E 001°51'0 0.0
2018-Sep-23 11:04N 50°58' E 001°51'0 0.0
2018-Sep-23 11:00N 50°58' E 001°51'0 0.0
2018-Sep-23 10:29N 50°58' E 001°51'0 0.0
2018-Sep-23 10:03N 50°58' E 001°51'0 0.0
2018-Sep-23 10:00N 50°58' E 001°51'0 0.0
2018-Sep-23 09:30N 50°58' E 001°51'0 0.0
2018-Sep-23 09:03N 50°58' E 001°51'0 0.0
2018-Sep-23 08:57N 50°58' E 001°51'0 0.0
2018-Sep-23 08:28N 50°58' E 001°51'0 0.0
2018-Sep-23 08:03N 50°58' E 001°51'0 0.0
2018-Sep-23 08:00N 50°58' E 001°51'0 0.0
2018-Sep-23 07:29N 50°58' E 001°51'0 0.0
2018-Sep-23 07:04N 50°58' E 001°51'0 0.0
2018-Sep-23 07:00N 50°58' E 001°51'0 0.0
2018-Sep-23 06:30N 50°58' E 001°51'0 0.0
2018-Sep-23 06:03N 50°58' E 001°51'0 0.0
2018-Sep-23 06:00N 50°58' E 001°51'0 0.0
2018-Sep-23 05:30N 50°58' E 001°51'0 0.0
2018-Sep-23 05:03N 50°58' E 001°51'0 0.0
2018-Sep-23 05:01N 50°58' E 001°51'0 0.0
2018-Sep-23 04:30N 50°58' E 001°51'0 0.0
2018-Sep-23 04:03N 50°58' E 001°51'0 0.0
2018-Sep-23 04:00N 50°58' E 001°51'0 0.0
2018-Sep-23 03:31N 50°58' E 001°51'0 0.0
2018-Sep-23 03:03N 50°58' E 001°51'0 0.0
2018-Sep-23 03:00N 50°58' E 001°51'0 0.0
2018-Sep-23 02:31N 50°58' E 001°51'0 0.0
2018-Sep-23 02:03N 50°58' E 001°51'0 0.0
2018-Sep-23 02:01N 50°58' E 001°51'0 0.0
2018-Sep-23 01:31N 50°58' E 001°51'0 0.0
2018-Sep-23 01:03N 50°58' E 001°51'0 0.0
2018-Sep-23 01:00N 50°58' E 001°51'0 0.0
2018-Sep-23 00:30N 50°58' E 001°51'0 0.0
2018-Sep-22 23:58N 50°58' E 001°51'0 0.0
2018-Sep-22 23:23N 50°58' E 001°51'0 0.0
2018-Sep-22 23:01N 50°58' E 001°51'0 0.0
2018-Sep-22 22:59N 50°58' E 001°51'0 0.0
2018-Sep-22 22:30N 50°58' E 001°51'0 0.0
2018-Sep-22 22:03N 50°58' E 001°51'0 0.0
2018-Sep-22 22:00N 50°58' E 001°51'0 0.0
2018-Sep-22 21:27N 50°58' E 001°51'0 0.0
2018-Sep-22 21:03N 50°58' E 001°51'0 0.0
2018-Sep-22 20:57N 50°58' E 001°51'0 0.0
2018-Sep-22 20:27N 50°58' E 001°51'0 0.0
2018-Sep-22 20:02N 50°58' E 001°51'0 0.0
2018-Sep-22 19:58N 50°58' E 001°51'0 0.0
2018-Sep-22 19:30N 50°58' E 001°51'0 0.0
2018-Sep-22 19:03N 50°58' E 001°51'0 0.0
2018-Sep-22 18:58N 50°58' E 001°51'0 0.0
2018-Sep-22 18:30N 50°58' E 001°51'4 8.6
2018-Sep-22 18:04N 50°58' E 001°45'118.1
2018-Sep-22 18:01N 50°58' E 001°44'918.7
2018-Sep-22 17:31N 51°03' E 001°31'817.7
2018-Sep-22 17:03N 51°07' E 001°20'0 0.1
2018-Sep-22 16:56N 51°07' E 001°20'0 0.0
2018-Sep-22 16:31N 51°07' E 001°20'0 0.2
2018-Sep-22 15:57N 51°07' E 001°20'614.0
2018-Sep-22 15:30N 51°05' E 001°29'920.0
2018-Sep-22 15:04N 50°60' E 001°41'120.1
2018-Sep-22 15:01N 50°59' E 001°42'610.9
2018-Sep-22 14:30N 50°58' E 001°51'0 0.0
2018-Sep-22 13:59N 50°58' E 001°51'0 0.0
2018-Sep-22 13:28N 50°58' E 001°51'4 9.5
2018-Sep-22 13:04N 50°58' E 001°45'119.8
2018-Sep-22 13:01N 50°58' E 001°43'1019.9
2018-Sep-22 12:30N 51°03' E 001°30'716.1
2018-Sep-22 12:03N 51°07' E 001°20'0 0.0
2018-Sep-22 12:00N 51°07' E 001°20'0 0.0
2018-Sep-22 11:30N 51°07' E 001°20'0 0.2
2018-Sep-22 11:02N 51°07' E 001°20'0 3.2
2018-Sep-22 11:00N 51°07' E 001°20'713.9
2018-Sep-22 10:31N 51°05' E 001°30'818.2
2018-Sep-22 10:04N 51°00' E 001°41'118.0
2018-Sep-22 10:01N 50°60' E 001°42'611.8
2018-Sep-22 09:30N 50°58' E 001°52'0 0.0
2018-Sep-22 09:03N 50°58' E 001°52'0 0.0
2018-Sep-22 09:00N 50°58' E 001°52'0 0.0
2018-Sep-22 08:30N 50°58' E 001°52'0 0.0
2018-Sep-22 08:03N 50°58' E 001°52'0 0.0
2018-Sep-22 08:00N 50°58' E 001°52'0 0.0
2018-Sep-22 07:30N 50°58' E 001°52'0 0.0
2018-Sep-22 07:03N 50°58' E 001°52'0 0.0
2018-Sep-22 07:00N 50°58' E 001°52'0 0.0
2018-Sep-22 06:30N 50°58' E 001°52'0 0.0
2018-Sep-22 06:03N 50°58' E 001°52'0 0.0
2018-Sep-22 06:00N 50°58' E 001°52'0 0.0
2018-Sep-22 05:30N 50°58' E 001°52'0 0.0
2018-Sep-22 05:03N 50°58' E 001°52'0 0.0
2018-Sep-22 05:00N 50°58' E 001°52'0 0.0
2018-Sep-22 04:30N 50°58' E 001°52'0 0.0
2018-Sep-22 04:03N 50°58' E 001°52'0 0.0
2018-Sep-22 04:00N 50°58' E 001°52'0 0.0
2018-Sep-22 03:30N 50°58' E 001°52'0 0.0
2018-Sep-22 03:03N 50°58' E 001°52'0 0.0
2018-Sep-22 03:00N 50°58' E 001°52'0 0.0
2018-Sep-22 02:30N 50°58' E 001°52'0 0.0
2018-Sep-22 02:03N 50°58' E 001°52'0 0.0
2018-Sep-22 02:00N 50°58' E 001°52'0 0.0
2018-Sep-22 01:29N 50°58' E 001°52'0 0.0
2018-Sep-22 01:03N 50°58' E 001°52'0 0.0
2018-Sep-22 01:00N 50°58' E 001°52'0 0.0
2018-Sep-22 00:30N 50°58' E 001°52'0 0.0
2018-Sep-22 00:03N 50°58' E 001°52'0 0.0
2018-Sep-22 00:00N 50°58' E 001°52'0 0.0
2018-Sep-21 23:29N 50°58' E 001°52'0 0.0
2018-Sep-21 23:03N 50°58' E 001°52'0 0.0
2018-Sep-21 22:59N 50°58' E 001°52'0 0.0
2018-Sep-21 22:30N 50°58' E 001°52'0 0.0
2018-Sep-21 22:03N 50°58' E 001°52'0 0.0
2018-Sep-21 22:00N 50°58' E 001°52'0 0.0
2018-Sep-21 21:30N 50°58' E 001°52'0 0.0
2018-Sep-21 21:04N 50°58' E 001°52'0 0.0
2018-Sep-21 21:00N 50°58' E 001°52'0 0.0
2018-Sep-21 20:30N 50°58' E 001°52'0 0.0
2018-Sep-21 20:04N 50°58' E 001°52'0 0.0
2018-Sep-21 20:01N 50°58' E 001°52'0 0.0
2018-Sep-21 19:31N 50°58' E 001°52'1 1.5
2018-Sep-21 19:03N 50°58' E 001°51'111.5
2018-Sep-21 19:00N 50°58' E 001°50'1019.0
2018-Sep-21 18:30N 50°59' E 001°35'818.4
2018-Sep-21 18:03N 51°04' E 001°25'118.9
2018-Sep-21 18:00N 51°05' E 001°24'3 5.3
2018-Sep-21 17:24N 51°07' E 001°20'0 0.0
2018-Sep-21 16:54N 51°07' E 001°20'411.0
2018-Sep-21 16:31N 51°07' E 001°27'817.2
2018-Sep-21 16:04N 51°02' E 001°36'115.5
2018-Sep-21 16:01N 51°01' E 001°37'715.0
2018-Sep-21 15:31N 50°58' E 001°48'2 4.7
2018-Sep-21 15:03N 50°58' E 001°52'0 0.0
2018-Sep-21 15:00N 50°58' E 001°52'0 0.0
2018-Sep-21 14:03N 50°58' E 001°52'2 3.0
2018-Sep-21 13:30N 50°58' E 001°49'818.1
2018-Sep-21 13:03N 51°01' E 001°37'119.2
2018-Sep-21 13:00N 51°01' E 001°35'1019.2
2018-Sep-21 12:30N 51°07' E 001°23'2 2.8
2018-Sep-21 11:51N 51°07' E 001°20'0 0.0
2018-Sep-21 11:28N 51°07' E 001°20'0 0.3
2018-Sep-21 11:03N 51°07' E 001°20'0 2.5
2018-Sep-21 11:01N 51°07' E 001°20'4 8.4
2018-Sep-21 10:30N 51°06' E 001°27'817.4
2018-Sep-21 10:03N 51°02' E 001°37'117.1
2018-Sep-21 10:00N 51°02' E 001°39'815.4
2018-Sep-21 09:31N 50°58' E 001°50'1 2.2
2018-Sep-21 09:03N 50°58' E 001°51'0 0.0
2018-Sep-21 09:00N 50°58' E 001°51'0 0.0
2018-Sep-21 08:27N 50°58' E 001°51'0 0.0
2018-Sep-21 07:58N 50°58' E 001°51'0 0.0
2018-Sep-21 07:26N 50°58' E 001°51'0 0.0
2018-Sep-21 07:02N 50°58' E 001°51'0 0.0
2018-Sep-21 07:00N 50°58' E 001°51'0 0.0
2018-Sep-21 06:30N 50°58' E 001°51'0 0.0
2018-Sep-21 06:03N 50°58' E 001°51'0 0.0
2018-Sep-21 06:00N 50°58' E 001°51'0 0.0
2018-Sep-21 05:30N 50°58' E 001°51'0 0.0
2018-Sep-21 05:03N 50°58' E 001°51'0 0.0
2018-Sep-21 05:00N 50°58' E 001°51'0 0.0
2018-Sep-21 04:30N 50°58' E 001°51'0 0.0
2018-Sep-21 04:03N 50°58' E 001°51'0 0.0
2018-Sep-21 04:01N 50°58' E 001°51'0 0.0
2018-Sep-21 03:30N 50°58' E 001°51'0 0.0
2018-Sep-21 03:02N 50°58' E 001°51'0 0.0
2018-Sep-21 03:01N 50°58' E 001°51'0 0.0
2018-Sep-21 02:30N 50°58' E 001°51'0 0.0
2018-Sep-21 02:03N 50°58' E 001°51'0 0.0
2018-Sep-21 02:00N 50°58' E 001°51'0 0.0
2018-Sep-21 01:30N 50°58' E 001°51'0 0.0
2018-Sep-21 01:03N 50°58' E 001°51'0 0.0
2018-Sep-21 01:00N 50°58' E 001°51'0 0.0
2018-Sep-21 00:30N 50°58' E 001°51'0 0.0
2018-Sep-21 00:03N 50°58' E 001°51'0 0.0
2018-Sep-21 00:00N 50°58' E 001°51'0 0.0
2018-Sep-20 23:29N 50°58' E 001°51'0 0.0
2018-Sep-20 23:03N 50°58' E 001°51'0 0.0
2018-Sep-20 23:00N 50°58' E 001°51'0 0.0
2018-Sep-20 22:30N 50°58' E 001°51'0 0.0
2018-Sep-20 22:03N 50°58' E 001°51'0 0.0
2018-Sep-20 21:59N 50°58' E 001°51'0 0.0
2018-Sep-20 21:30N 50°58' E 001°51'0 0.0
2018-Sep-20 21:04N 50°58' E 001°51'0 0.0
2018-Sep-20 21:00N 50°58' E 001°51'0 0.0
2018-Sep-20 20:30N 50°58' E 001°51'0 0.0
2018-Sep-20 20:02N 50°58' E 001°51'0 0.0
2018-Sep-20 20:00N 50°58' E 001°51'0 0.0
2018-Sep-20 19:30N 50°58' E 001°51'0 0.0
2018-Sep-20 19:03N 50°58' E 001°51'0 0.0
2018-Sep-20 19:00N 50°58' E 001°51'0 0.0
2018-Sep-20 18:30N 50°58' E 001°51'1 2.0
2018-Sep-20 18:03N 50°58' E 001°50'117.5
2018-Sep-20 18:00N 50°58' E 001°48'918.6
2018-Sep-20 17:30N 51°01' E 001°34'919.4
2018-Sep-20 17:03N 51°06' E 001°23'119.0
2018-Sep-20 17:01N 51°07' E 001°22'1 2.1
2018-Sep-20 16:27N 51°07' E 001°20'0 0.0
2018-Sep-20 16:03N 51°07' E 001°20'0 1.5
2018-Sep-20 16:00N 51°07' E 001°20'815.8
2018-Sep-20 15:31N 51°04' E 001°31'919.9
2018-Sep-20 15:03N 50°59' E 001°43'119.9
2018-Sep-20 15:01N 50°58' E 001°44'4 4.3
2018-Sep-20 14:03N 50°58' E 001°51'0 0.0
2018-Sep-20 14:01N 50°58' E 001°51'0 0.0
2018-Sep-20 13:31N 50°58' E 001°51'4 9.9
2018-Sep-20 13:03N 50°58' E 001°44'118.0
2018-Sep-20 13:00N 50°58' E 001°43'919.0
2018-Sep-20 12:31N 51°02' E 001°29'815.7
2018-Sep-20 12:00N 51°07' E 001°20'0 0.0
2018-Sep-20 11:21N 51°07' E 001°20'0 0.0
2018-Sep-20 10:59N 51°07' E 001°20'4 8.6
2018-Sep-20 10:31N 51°06' E 001°26'818.7
2018-Sep-20 10:04N 51°02' E 001°38'118.5
2018-Sep-20 10:01N 51°01' E 001°39'816.5
2018-Sep-20 09:30N 50°58' E 001°51'0 0.8
2018-Sep-20 09:03N 50°58' E 001°52'0 0.0
2018-Sep-20 09:00N 50°58' E 001°52'0 0.0
2018-Sep-20 08:31N 50°58' E 001°52'0 0.0
2018-Sep-20 08:04N 50°58' E 001°52'0 0.0
2018-Sep-20 08:00N 50°58' E 001°52'0 0.0
2018-Sep-20 07:30N 50°58' E 001°52'0 0.0
2018-Sep-20 07:03N 50°58' E 001°52'0 0.0
2018-Sep-20 07:00N 50°58' E 001°52'0 0.0
2018-Sep-20 06:30N 50°58' E 001°52'0 0.0
2018-Sep-20 06:04N 50°58' E 001°52'0 0.0
2018-Sep-20 06:00N 50°58' E 001°52'0 0.0
2018-Sep-20 05:30N 50°58' E 001°52'0 0.0
2018-Sep-20 05:04N 50°58' E 001°52'0 0.0
2018-Sep-20 05:00N 50°58' E 001°52'0 0.0
2018-Sep-20 04:30N 50°58' E 001°52'0 0.0
2018-Sep-20 04:02N 50°58' E 001°52'0 0.0
2018-Sep-20 03:59N 50°58' E 001°52'0 0.0
2018-Sep-20 03:30N 50°58' E 001°52'0 0.0
2018-Sep-20 03:03N 50°58' E 001°52'0 0.0
2018-Sep-20 03:00N 50°58' E 001°52'0 0.0
2018-Sep-20 02:31N 50°58' E 001°52'0 0.0
2018-Sep-20 02:03N 50°58' E 001°52'0 0.0
2018-Sep-20 02:00N 50°58' E 001°52'0 0.0
2018-Sep-20 01:30N 50°58' E 001°52'0 0.0
2018-Sep-20 01:04N 50°58' E 001°52'0 0.0
2018-Sep-20 01:01N 50°58' E 001°52'0 0.0
2018-Sep-20 00:30N 50°58' E 001°52'0 0.0
2018-Sep-20 00:03N 50°58' E 001°52'0 0.0
2018-Sep-20 00:00N 50°58' E 001°52'0 0.0
2018-Sep-19 23:31N 50°58' E 001°52'0 0.0
2018-Sep-19 23:03N 50°58' E 001°52'0 0.0
2018-Sep-19 23:00N 50°58' E 001°52'0 0.0
2018-Sep-19 22:30N 50°58' E 001°52'0 0.0
2018-Sep-19 22:04N 50°58' E 001°52'0 0.0
2018-Sep-19 22:01N 50°58' E 001°52'0 0.0
2018-Sep-19 21:31N 50°58' E 001°52'0 0.0
2018-Sep-19 21:04N 50°58' E 001°52'0 0.0
2018-Sep-19 21:01N 50°58' E 001°52'0 0.0
2018-Sep-19 20:31N 50°58' E 001°52'0 0.0
2018-Sep-19 20:04N 50°58' E 001°52'0 0.0
2018-Sep-19 20:01N 50°58' E 001°52'0 0.0
2018-Sep-19 19:30N 50°58' E 001°52'0 0.0
2018-Sep-19 19:03N 50°58' E 001°52'0 0.0
2018-Sep-19 19:01N 50°58' E 001°52'0 0.5
2018-Sep-19 18:30N 50°58' E 001°51'613.8
2018-Sep-19 18:03N 50°58' E 001°41'121.1
2018-Sep-19 18:00N 50°58' E 001°40'1019.7
2018-Sep-19 17:30N 51°04' E 001°27'611.3
2018-Sep-19 17:01N 51°07' E 001°20'0 0.0
2018-Sep-19 17:01N 51°07' E 001°20'0 0.0
2018-Sep-19 16:31N 51°07' E 001°20'0 0.4
2018-Sep-19 16:03N 51°07' E 001°20'0 0.6
2018-Sep-19 16:01N 51°07' E 001°20'815.8
2018-Sep-19 15:31N 51°04' E 001°31'818.8
2018-Sep-19 15:03N 50°59' E 001°43'118.7
2018-Sep-19 15:00N 50°59' E 001°44'5 4.9
2018-Sep-19 14:00N 50°58' E 001°52'0 0.0
2018-Sep-19 13:30N 50°58' E 001°52'512.2
2018-Sep-19 13:03N 50°58' E 001°43'118.7
2018-Sep-19 13:00N 50°58' E 001°42'918.6
2018-Sep-19 12:31N 51°04' E 001°30'715.7
2018-Sep-19 12:03N 51°07' E 001°20'0 0.0
2018-Sep-19 12:00N 51°07' E 001°20'0 0.0
2018-Sep-19 11:23N 51°07' E 001°20'0 0.2
2018-Sep-19 11:04N 51°07' E 001°20'0 1.9
2018-Sep-19 11:00N 51°07' E 001°20'815.3
2018-Sep-19 10:30N 51°05' E 001°32'818.8
2018-Sep-19 10:03N 50°59' E 001°42'118.4
2018-Sep-19 10:00N 50°59' E 001°43'5 7.7
2018-Sep-19 09:19N 50°58' E 001°52'0 0.0
2018-Sep-19 09:01N 50°58' E 001°52'0 0.0
2018-Sep-19 08:55N 50°58' E 001°52'0 0.0
2018-Sep-19 08:28N 50°58' E 001°52'0 0.0
2018-Sep-19 07:55N 50°58' E 001°52'0 0.0
2018-Sep-19 07:25N 50°58' E 001°52'0 0.0
2018-Sep-19 07:01N 50°58' E 001°52'0 0.0
2018-Sep-19 06:58N 50°58' E 001°52'0 0.0
2018-Sep-19 06:28N 50°58' E 001°52'0 0.0
2018-Sep-19 05:58N 50°58' E 001°52'0 0.0
2018-Sep-19 05:28N 50°58' E 001°52'0 0.0
2018-Sep-19 05:01N 50°58' E 001°52'0 0.0
2018-Sep-19 04:49N 50°58' E 001°52'0 0.0
2018-Sep-19 04:25N 50°58' E 001°52'0 0.0
2018-Sep-19 04:01N 50°58' E 001°52'0 0.0
2018-Sep-19 03:58N 50°58' E 001°52'0 0.0
2018-Sep-19 03:28N 50°58' E 001°52'0 0.0
2018-Sep-19 03:01N 50°58' E 001°52'0 0.0
2018-Sep-19 02:58N 50°58' E 001°52'0 0.0
2018-Sep-19 02:28N 50°58' E 001°52'0 0.0
2018-Sep-19 02:01N 50°58' E 001°52'0 0.0
2018-Sep-19 01:58N 50°58' E 001°52'0 0.0
2018-Sep-19 01:28N 50°58' E 001°52'0 0.0
2018-Sep-19 00:52N 50°58' E 001°52'0 0.0
2018-Sep-19 00:22N 50°58' E 001°52'0 0.0
2018-Sep-19 00:01N 50°58' E 001°52'0 0.0
2018-Sep-18 23:49N 50°58' E 001°52'0 0.0
2018-Sep-18 23:25N 50°58' E 001°52'0 0.0
2018-Sep-18 23:01N 50°58' E 001°52'0 0.0
2018-Sep-18 22:58N 50°58' E 001°52'0 0.0
2018-Sep-18 22:25N 50°58' E 001°52'0 0.0
2018-Sep-18 22:01N 50°58' E 001°52'0 0.0
2018-Sep-18 21:58N 50°58' E 001°52'0 0.0
2018-Sep-18 21:30N 50°58' E 001°52'0 0.0
2018-Sep-18 21:03N 50°58' E 001°52'0 0.0
2018-Sep-18 20:59N 50°58' E 001°52'0 0.0
2018-Sep-18 20:30N 50°58' E 001°52'0 0.0
2018-Sep-18 20:03N 50°58' E 001°52'0 0.0
2018-Sep-18 20:00N 50°58' E 001°52'1 2.7
2018-Sep-18 19:30N 50°58' E 001°50'511.3
2018-Sep-18 19:03N 50°59' E 001°42'119.2
2018-Sep-18 19:00N 50°59' E 001°40'1019.1
2018-Sep-18 18:30N 51°04' E 001°28'6 5.9
2018-Sep-18 17:33N 51°07' E 001°20'0 0.0
2018-Sep-18 17:28N 51°07' E 001°20'0 0.5
2018-Sep-18 17:03N 51°07' E 001°20'0 2.5
2018-Sep-18 17:01N 51°07' E 001°20'816.8
2018-Sep-18 16:31N 51°03' E 001°32'818.3
2018-Sep-18 16:04N 50°59' E 001°43'117.6
2018-Sep-18 16:00N 50°58' E 001°44'5 9.4
2018-Sep-18 15:30N 50°58' E 001°52'0 0.0
2018-Sep-18 15:03N 50°58' E 001°52'0 0.0
2018-Sep-18 15:00N 50°58' E 001°52'6 6.5
2018-Sep-18 14:03N 50°58' E 001°42'114.4
2018-Sep-18 14:00N 50°59' E 001°41'714.0
2018-Sep-18 13:30N 51°03' E 001°32'614.0
2018-Sep-18 13:03N 51°06' E 001°23'114.3
2018-Sep-18 13:00N 51°06' E 001°22'2 2.1
2018-Sep-18 12:12N 51°07' E 001°20'0 0.0
2018-Sep-18 11:56N 51°07' E 001°20'1 1.3
2018-Sep-18 11:30N 51°07' E 001°21'3 6.3
2018-Sep-18 11:03N 51°08' E 001°25'0 1.5
2018-Sep-18 11:00N 51°08' E 001°25'1 1.3
2018-Sep-18 10:30N 51°08' E 001°26'4 9.7
2018-Sep-18 10:03N 51°06' E 001°32'118.8
2018-Sep-18 10:01N 51°05' E 001°33'918.1
2018-Sep-18 09:30N 50°59' E 001°44'511.3
2018-Sep-18 09:03N 50°58' E 001°52'0 0.0
2018-Sep-18 09:00N 50°58' E 001°52'0 0.0
2018-Sep-18 08:28N 50°58' E 001°52'0 0.0
2018-Sep-18 07:58N 50°58' E 001°52'0 0.0
2018-Sep-18 07:25N 50°58' E 001°52'0 0.0
2018-Sep-18 06:58N 50°58' E 001°52'0 0.0
2018-Sep-18 06:10N 50°58' E 001°52'0 0.0
2018-Sep-18 06:01N 50°58' E 001°52'0 0.0
2018-Sep-18 05:58N 50°58' E 001°52'0 0.0
2018-Sep-18 05:28N 50°58' E 001°52'0 0.0
2018-Sep-18 05:01N 50°58' E 001°52'0 0.0
2018-Sep-18 04:52N 50°58' E 001°52'0 0.0
2018-Sep-18 04:28N 50°58' E 001°52'0 0.0
2018-Sep-18 04:01N 50°58' E 001°52'0 0.0
2018-Sep-18 03:52N 50°58' E 001°52'0 0.0
2018-Sep-18 03:28N 50°58' E 001°52'0 0.0
2018-Sep-18 03:01N 50°58' E 001°52'0 0.0
2018-Sep-18 02:58N 50°58' E 001°52'0 0.0
2018-Sep-18 02:25N 50°58' E 001°52'0 0.0
2018-Sep-18 02:01N 50°58' E 001°52'0 0.0
2018-Sep-18 01:55N 50°58' E 001°52'0 0.0
2018-Sep-18 01:28N 50°58' E 001°52'0 0.0
2018-Sep-18 01:01N 50°58' E 001°52'0 0.0
2018-Sep-18 00:58N 50°58' E 001°52'0 0.0
2018-Sep-18 00:19N 50°58' E 001°52'0 0.0
2018-Sep-18 00:01N 50°58' E 001°52'0 0.0
2018-Sep-17 23:58N 50°58' E 001°52'0 0.0
2018-Sep-17 23:28N 50°58' E 001°52'0 0.0
2018-Sep-17 22:58N 50°58' E 001°52'0 0.0
2018-Sep-17 22:22N 50°58' E 001°52'0 0.0
2018-Sep-17 22:01N 50°58' E 001°52'0 0.1
2018-Sep-17 21:58N 50°58' E 001°52'0 0.0
2018-Sep-17 21:28N 50°58' E 001°52'0 0.0
2018-Sep-17 20:58N 50°58' E 001°52'0 0.0
2018-Sep-17 20:28N 50°58' E 001°52'0 0.0
2018-Sep-17 19:55N 50°58' E 001°52'0 0.0
2018-Sep-17 19:30N 50°58' E 001°52'0 0.0
2018-Sep-17 19:03N 50°58' E 001°52'0 0.0
2018-Sep-17 19:00N 50°58' E 001°52'0 0.0
2018-Sep-17 18:31N 50°58' E 001°52'3 6.3
2018-Sep-17 18:03N 50°58' E 001°47'113.8
2018-Sep-17 18:00N 50°58' E 001°46'917.9
2018-Sep-17 17:30N 51°02' E 001°33'818.2
2018-Sep-17 17:03N 51°06' E 001°22'117.4
2018-Sep-17 17:00N 51°07' E 001°21'1 1.9
2018-Sep-17 16:30N 51°07' E 001°20'0 0.1
2018-Sep-17 16:03N 51°07' E 001°20'0 1.6
2018-Sep-17 16:00N 51°07' E 001°20'816.1
2018-Sep-17 15:31N 51°05' E 001°32'818.5
2018-Sep-17 15:04N 50°59' E 001°42'118.7
2018-Sep-17 15:01N 50°59' E 001°44'5 9.4
2018-Sep-17 14:30N 50°58' E 001°51'0 0.0
2018-Sep-17 14:00N 50°58' E 001°51'0 0.0
2018-Sep-17 13:31N 50°58' E 001°51'3 7.6
2018-Sep-17 13:03N 50°58' E 001°46'118.7
2018-Sep-17 13:00N 50°58' E 001°44'918.7
2018-Sep-17 12:30N 51°03' E 001°31'818.1
2018-Sep-17 12:03N 51°07' E 001°20'0 2.8
2018-Sep-17 11:59N 51°07' E 001°20'0 0.0
2018-Sep-17 11:29N 51°07' E 001°20'0 0.0
2018-Sep-17 11:00N 51°07' E 001°20'3 5.4
2018-Sep-17 10:31N 51°07' E 001°24'919.9
2018-Sep-17 10:03N 51°02' E 001°36'120.3
2018-Sep-17 10:00N 51°01' E 001°37'918.2
2018-Sep-17 09:31N 50°58' E 001°51'0 0.8
2018-Sep-17 09:01N 50°58' E 001°52'0 0.0
2018-Sep-17 08:49N 50°58' E 001°52'0 0.0
2018-Sep-17 08:28N 50°58' E 001°52'0 0.4
2018-Sep-17 07:55N 50°58' E 001°52'0 0.0
2018-Sep-17 07:25N 50°58' E 001°52'0 0.0
2018-Sep-17 07:01N 50°58' E 001°52'0 0.0
2018-Sep-17 06:55N 50°58' E 001°52'0 0.0
2018-Sep-17 06:28N 50°58' E 001°52'0 0.0
2018-Sep-17 05:46N 50°58' E 001°52'0 0.0
2018-Sep-17 05:19N 50°58' E 001°52'0 0.0
2018-Sep-17 04:55N 50°58' E 001°52'0 0.0
2018-Sep-17 04:28N 50°58' E 001°52'0 0.0
2018-Sep-17 03:55N 50°58' E 001°52'0 0.0
2018-Sep-17 03:28N 50°58' E 001°52'0 0.0
2018-Sep-17 02:48N 50°58' E 001°52'0 0.0
2018-Sep-17 02:20N 50°58' E 001°52'0 0.0
2018-Sep-17 01:50N 50°58' E 001°52'0 0.0
2018-Sep-17 01:14N 50°58' E 001°52'0 0.0
2018-Sep-17 01:02N 50°58' E 001°52'0 0.0
2018-Sep-17 00:50N 50°58' E 001°52'0 0.0
2018-Sep-17 00:29N 50°58' E 001°52'0 0.0
2018-Sep-16 23:59N 50°58' E 001°52'0 0.0
2018-Sep-16 23:29N 50°58' E 001°52'0 0.0
2018-Sep-16 22:56N 50°58' E 001°52'0 0.0
2018-Sep-16 22:26N 50°58' E 001°52'0 0.0
2018-Sep-16 22:02N 50°58' E 001°52'0 0.0
2018-Sep-16 21:59N 50°58' E 001°52'0 0.0
2018-Sep-16 21:26N 50°58' E 001°52'0 0.0
2018-Sep-16 21:02N 50°58' E 001°52'0 0.1
2018-Sep-16 20:59N 50°58' E 001°52'0 0.0
2018-Sep-16 20:29N 50°58' E 001°52'0 0.0
2018-Sep-16 20:02N 50°58' E 001°52'0 0.0
2018-Sep-16 19:59N 50°58' E 001°52'0 0.0
2018-Sep-16 19:31N 50°58' E 001°52'0 0.4
2018-Sep-16 19:03N 50°58' E 001°52'0 1.0
2018-Sep-16 19:00N 50°58' E 001°52'0 0.0
2018-Sep-16 18:30N 50°58' E 001°52'1 1.7
2018-Sep-16 18:03N 50°58' E 001°51'112.4
2018-Sep-16 18:00N 50°58' E 001°50'816.4
2018-Sep-16 17:30N 50°59' E 001°37'817.5
2018-Sep-16 17:03N 51°05' E 001°27'118.5
2018-Sep-16 17:00N 51°05' E 001°26'4 8.0
2018-Sep-16 16:28N 51°07' E 001°20'0 0.0
2018-Sep-16 16:03N 51°07' E 001°20'0 0.5
2018-Sep-16 16:00N 51°07' E 001°20'612.0
2018-Sep-16 15:30N 51°05' E 001°29'818.4
2018-Sep-16 15:04N 51°00' E 001°40'118.4
2018-Sep-16 15:01N 50°60' E 001°41'7 6.2
2018-Sep-16 13:55N 50°58' E 001°51'0 0.0
2018-Sep-16 13:19N 50°58' E 001°51'0 0.0
2018-Sep-16 13:01N 50°58' E 001°51'0 0.0
2018-Sep-16 12:55N 50°58' E 001°51'0 0.0
2018-Sep-16 12:28N 50°58' E 001°51'0 0.0
2018-Sep-16 12:01N 50°58' E 001°51'0 0.0
2018-Sep-16 11:55N 50°58' E 001°51'0 0.0
2018-Sep-16 11:28N 50°58' E 001°51'0 0.0
2018-Sep-16 11:01N 50°58' E 001°51'0 0.0
2018-Sep-16 10:52N 50°58' E 001°51'0 0.0
2018-Sep-16 10:25N 50°58' E 001°51'0 0.0
2018-Sep-16 10:01N 50°58' E 001°51'0 0.0
2018-Sep-16 09:58N 50°58' E 001°51'0 0.0
2018-Sep-16 09:25N 50°58' E 001°51'0 0.0
2018-Sep-16 08:59N 50°58' E 001°51'0 0.0
2018-Sep-16 08:22N 50°58' E 001°51'0 0.4
2018-Sep-16 08:02N 50°58' E 001°51'0 3.3
2018-Sep-16 08:00N 50°58' E 001°51'1 1.2
2018-Sep-16 07:28N 50°58' E 001°52'0 0.0
2018-Sep-16 06:49N 50°58' E 001°52'0 0.0
2018-Sep-16 06:28N 50°58' E 001°52'0 0.0
2018-Sep-16 06:01N 50°58' E 001°52'0 0.0
2018-Sep-16 05:58N 50°58' E 001°52'0 0.0
2018-Sep-16 05:28N 50°58' E 001°52'0 0.0
2018-Sep-16 05:01N 50°58' E 001°52'0 0.0
2018-Sep-16 04:55N 50°58' E 001°52'0 0.0
2018-Sep-16 04:28N 50°58' E 001°52'0 0.0
2018-Sep-16 04:01N 50°58' E 001°52'0 0.0
2018-Sep-16 03:58N 50°58' E 001°52'0 0.0
2018-Sep-16 03:25N 50°58' E 001°52'0 0.0
2018-Sep-16 03:01N 50°58' E 001°52'0 0.0
2018-Sep-16 02:49N 50°58' E 001°52'0 0.0
2018-Sep-16 02:28N 50°58' E 001°52'0 0.0
2018-Sep-16 02:01N 50°58' E 001°52'0 0.0
2018-Sep-16 01:58N 50°58' E 001°52'0 0.0
2018-Sep-16 01:28N 50°58' E 001°52'0 0.0
2018-Sep-16 01:01N 50°58' E 001°52'0 0.0
2018-Sep-16 00:55N 50°58' E 001°52'0 0.0
2018-Sep-16 00:28N 50°58' E 001°52'0 0.0
2018-Sep-16 00:01N 50°58' E 001°52'0 0.0
2018-Sep-15 23:49N 50°58' E 001°52'0 0.0
2018-Sep-15 23:28N 50°58' E 001°52'0 0.0
2018-Sep-15 22:58N 50°58' E 001°52'0 0.0
2018-Sep-15 22:16N 50°58' E 001°52'0 0.0
2018-Sep-15 21:52N 50°58' E 001°52'0 0.0
2018-Sep-15 21:28N 50°58' E 001°52'0 0.0
2018-Sep-15 20:58N 50°58' E 001°52'0 0.0
2018-Sep-15 20:22N 50°58' E 001°52'0 0.0
2018-Sep-15 19:55N 50°58' E 001°52'0 0.0
2018-Sep-15 19:31N 50°58' E 001°52'1 1.5
2018-Sep-15 19:02N 50°58' E 001°51'0 0.6
2018-Sep-15 19:00N 50°58' E 001°51'611.0
2018-Sep-15 18:30N 50°58' E 001°42'716.0
2018-Sep-15 18:03N 51°02' E 001°33'120.2
2018-Sep-15 18:00N 51°03' E 001°32'916.7
2018-Sep-15 17:30N 51°07' E 001°20'0 0.0
2018-Sep-15 17:01N 51°07' E 001°20'0 0.0
2018-Sep-15 16:59N 51°07' E 001°20'0 0.0
2018-Sep-15 16:28N 51°07' E 001°20'0 0.3
2018-Sep-15 16:04N 51°07' E 001°20'0 4.9
2018-Sep-15 16:00N 51°07' E 001°21'816.4
2018-Sep-15 15:30N 51°06' E 001°33'1019.7
2018-Sep-15 15:00N 50°59' E 001°44'4 4.7
2018-Sep-15 14:04N 50°58' E 001°51'0 0.0
2018-Sep-15 14:00N 50°58' E 001°51'0 0.0
2018-Sep-15 13:29N 50°58' E 001°51'3 6.4
2018-Sep-15 13:03N 50°58' E 001°47'119.6
2018-Sep-15 13:00N 50°58' E 001°45'1019.0
2018-Sep-15 12:30N 51°01' E 001°31'714.7
2018-Sep-15 12:03N 51°05' E 001°22'113.3
2018-Sep-15 12:00N 51°06' E 001°22'2 4.1
2018-Sep-15 11:30N 51°07' E 001°20'0 0.0
2018-Sep-15 11:01N 51°07' E 001°20'0 0.0
2018-Sep-15 11:00N 51°07' E 001°20'3 6.5
2018-Sep-15 10:30N 51°07' E 001°25'818.2
2018-Sep-15 10:04N 51°02' E 001°36'118.7
2018-Sep-15 10:00N 51°01' E 001°37'917.7
2018-Sep-15 09:30N 50°58' E 001°50'1 2.7
2018-Sep-15 09:03N 50°58' E 001°52'0 0.0
2018-Sep-15 09:00N 50°58' E 001°52'0 0.0
2018-Sep-15 08:30N 50°58' E 001°52'0 0.0
2018-Sep-15 08:03N 50°58' E 001°52'0 0.0
2018-Sep-15 08:00N 50°58' E 001°52'0 0.0
2018-Sep-15 07:30N 50°58' E 001°52'0 0.0
2018-Sep-15 06:57N 50°58' E 001°52'0 0.0
2018-Sep-15 06:30N 50°58' E 001°52'0 0.0
2018-Sep-15 05:54N 50°58' E 001°52'0 0.0
2018-Sep-15 05:30N 50°58' E 001°52'0 0.0
2018-Sep-15 05:00N 50°58' E 001°52'0 0.0
2018-Sep-15 04:21N 50°58' E 001°52'0 0.0
2018-Sep-15 04:03N 50°58' E 001°52'0 0.0
2018-Sep-15 03:57N 50°58' E 001°52'0 0.0
2018-Sep-15 03:27N 50°58' E 001°52'0 0.0
2018-Sep-15 03:03N 50°58' E 001°52'0 0.0
2018-Sep-15 03:00N 50°58' E 001°52'0 0.0
2018-Sep-15 02:27N 50°58' E 001°52'0 0.0
2018-Sep-15 02:03N 50°58' E 001°52'0 0.0
2018-Sep-15 02:00N 50°58' E 001°52'0 0.0
2018-Sep-15 01:27N 50°58' E 001°52'0 0.0
2018-Sep-15 01:03N 50°58' E 001°52'0 0.0
2018-Sep-15 00:57N 50°58' E 001°52'0 0.0
2018-Sep-15 00:27N 50°58' E 001°52'0 0.0
2018-Sep-15 00:03N 50°58' E 001°52'0 0.0
2018-Sep-14 23:57N 50°58' E 001°52'0 0.0
2018-Sep-14 23:27N 50°58' E 001°52'0 0.0
2018-Sep-14 22:57N 50°58' E 001°52'0 0.0
2018-Sep-14 22:21N 50°58' E 001°52'0 0.0
2018-Sep-14 22:03N 50°58' E 001°52'0 0.0
2018-Sep-14 22:00N 50°58' E 001°52'0 0.0
2018-Sep-14 21:30N 50°58' E 001°52'0 0.0
2018-Sep-14 21:03N 50°58' E 001°52'  

Dump ship's entire track history